createdAt,value
2023-02-20T00:01:51.604Z,6.77
2023-02-20T00:04:20.527Z,8.60
2023-02-20T00:06:49.261Z,7.77
2023-02-20T00:09:18.288Z,8.20
2023-02-20T00:11:47.116Z,7.73
2023-02-20T00:14:15.542Z,8.40
2023-02-20T00:16:48.655Z,7.77
2023-02-20T00:19:17.436Z,9.07
2023-02-20T00:21:49.705Z,7.27
2023-02-20T00:24:19.394Z,7.70
2023-02-20T00:26:49.151Z,8.87
2023-02-20T00:29:19.286Z,7.40
2023-02-20T00:31:55.033Z,8.10
2023-02-20T00:34:24.900Z,8.53
2023-02-20T00:36:54.352Z,7.53
2023-02-20T00:39:22.935Z,8.60
2023-02-20T00:41:51.498Z,9.53
2023-02-20T00:44:20.809Z,8.50
2023-02-20T00:46:49.180Z,8.73
2023-02-20T00:49:19.657Z,8.50
2023-02-20T00:51:48.772Z,8.33
2023-02-20T00:54:17.968Z,8.50
2023-02-20T00:56:47.423Z,8.53
2023-02-20T00:59:15.972Z,8.70
2023-02-20T01:01:44.621Z,9.17
2023-02-20T01:04:13.182Z,9.20
2023-02-20T01:06:45.132Z,8.90
2023-02-20T01:09:14.057Z,8.47
2023-02-20T01:11:44.100Z,9.00
2023-02-20T01:14:13.685Z,9.17
2023-02-20T01:16:46.564Z,11.23
2023-02-20T01:19:15.628Z,9.00
2023-02-20T01:21:46.660Z,10.10
2023-02-20T01:24:15.514Z,9.33
2023-02-20T01:26:45.992Z,9.47
2023-02-20T01:29:15.646Z,8.97
2023-02-20T01:31:49.980Z,9.83
2023-02-20T01:34:20.593Z,9.57
2023-02-20T01:36:52.589Z,9.50
2023-02-20T01:39:23.322Z,9.93
2023-02-20T01:41:56.329Z,9.00
2023-02-20T01:44:27.942Z,9.60
2023-02-20T01:46:57.021Z,9.87
2023-02-20T01:49:36.042Z,11.77
2023-02-20T01:52:20.222Z,10.80
2023-02-20T01:54:56.878Z,10.50
2023-02-20T01:57:29.716Z,9.47
2023-02-20T02:00:05.136Z,11.07
2023-02-20T02:02:49.662Z,10.43
2023-02-20T02:05:19.784Z,11.00
2023-02-20T02:07:49.766Z,12.10
2023-02-20T02:10:24.373Z,12.03
2023-02-20T02:12:56.443Z,11.73
2023-02-20T02:15:25.920Z,11.00
2023-02-20T02:18:27.468Z,13.07
2023-02-20T02:21:31.911Z,12.90
2023-02-20T02:24:50.813Z,11.70
2023-02-20T02:28:08.480Z,12.37
2023-02-20T02:31:40.882Z,12.07
2023-02-20T02:35:03.012Z,13.47
2023-02-20T02:37:41.666Z,11.33
2023-02-20T02:40:20.907Z,12.17
2023-02-20T02:42:58.851Z,15.30
2023-02-20T02:45:36.991Z,13.70
2023-02-20T02:48:14.013Z,13.40
2023-02-20T02:50:46.409Z,13.60
2023-02-20T02:53:17.001Z,12.97
2023-02-20T02:55:45.475Z,13.37
2023-02-20T02:58:16.026Z,14.27
2023-02-20T03:00:50.043Z,13.30
2023-02-20T03:03:24.308Z,12.30
2023-02-20T03:05:58.769Z,13.80
2023-02-20T03:08:37.875Z,12.90
2023-02-20T03:11:09.730Z,12.87
2023-02-20T03:14:03.792Z,12.60
2023-02-20T03:16:42.775Z,13.47
2023-02-20T03:19:15.794Z,14.03
2023-02-20T03:21:49.741Z,14.20
2023-02-20T03:24:23.014Z,13.63
2023-02-20T03:26:55.466Z,15.33
2023-02-20T03:29:29.476Z,15.97
2023-02-20T03:32:21.653Z,15.67
2023-02-20T03:35:11.097Z,15.23
2023-02-20T03:38:01.489Z,14.90
2023-02-20T03:40:51.421Z,14.50
2023-02-20T03:43:25.310Z,15.73
2023-02-20T03:46:03.589Z,14.50
2023-02-20T03:48:43.700Z,15.33
2023-02-20T03:51:12.879Z,14.70
2023-02-20T03:53:50.004Z,16.10
2023-02-20T03:56:24.036Z,14.00
2023-02-20T03:58:57.158Z,14.63
2023-02-20T04:01:28.788Z,13.83
2023-02-20T04:04:01.048Z,16.70
2023-02-20T04:06:34.671Z,15.27
2023-02-20T04:09:08.355Z,14.57
2023-02-20T04:11:48.630Z,14.53
2023-02-20T04:14:22.258Z,15.43
2023-02-20T04:16:59.914Z,14.90
2023-02-20T04:19:28.538Z,14.70
2023-02-20T04:22:02.819Z,14.20
2023-02-20T04:24:37.693Z,13.73
2023-02-20T04:27:08.536Z,14.87
2023-02-20T04:29:44.634Z,13.83
2023-02-20T04:32:13.141Z,13.60
2023-02-20T04:34:42.477Z,12.00
2023-02-20T04:37:15.587Z,13.10
2023-02-20T04:39:44.899Z,13.87
2023-02-20T04:42:15.669Z,14.73
2023-02-20T04:44:44.506Z,14.40
2023-02-20T04:47:17.863Z,15.10
2023-02-20T04:49:46.552Z,15.47
2023-02-20T04:52:20.594Z,15.83
2023-02-20T04:54:50.318Z,14.03
2023-02-20T04:57:20.845Z,15.63
2023-02-20T04:59:49.394Z,15.43
2023-02-20T05:02:18.246Z,14.60
2023-02-20T05:04:46.597Z,14.30
2023-02-20T05:07:17.904Z,13.60
2023-02-20T05:09:46.362Z,14.20
2023-02-20T05:12:14.914Z,15.80
2023-02-20T05:14:45.210Z,14.17
2023-02-20T05:17:14.489Z,15.30
2023-02-20T05:19:43.315Z,13.80
2023-02-20T05:22:21.510Z,12.50
2023-02-20T05:24:52.464Z,13.60
2023-02-20T05:27:24.179Z,14.20
2023-02-20T05:29:56.960Z,13.23
2023-02-20T05:32:27.611Z,13.80
2023-02-20T05:34:56.777Z,12.33
2023-02-20T05:37:27.921Z,12.60
2023-02-20T05:39:56.742Z,13.17
2023-02-20T05:42:25.456Z,13.70
2023-02-20T05:44:55.277Z,14.03
2023-02-20T05:47:23.635Z,14.20
2023-02-20T05:49:51.975Z,11.23
2023-02-20T05:52:20.585Z,13.00
2023-02-20T05:54:49.114Z,13.50
2023-02-20T05:57:17.525Z,15.43
2023-02-20T05:59:45.878Z,14.10
2023-02-20T06:02:15.630Z,12.30
2023-02-20T06:04:44.352Z,15.23
2023-02-20T06:07:13.433Z,14.50
2023-02-20T06:09:44.567Z,14.97
2023-02-20T06:12:14.710Z,15.77
2023-02-20T06:14:43.501Z,15.93
2023-02-20T06:17:11.976Z,15.43
2023-02-20T06:19:42.429Z,15.57
2023-02-20T06:22:10.993Z,15.33
2023-02-20T06:24:39.497Z,13.80
2023-02-20T06:27:08.864Z,14.40
2023-02-20T06:29:37.559Z,14.20
2023-02-20T06:32:06.922Z,14.43
2023-02-20T06:34:35.562Z,12.97
2023-02-20T06:37:06.309Z,15.53
2023-02-20T06:39:34.982Z,15.90
2023-02-20T06:42:03.470Z,14.77
2023-02-20T06:44:33.265Z,14.67
2023-02-20T06:47:02.182Z,13.93
2023-02-20T06:49:30.885Z,13.87
2023-02-20T06:51:59.475Z,15.67
2023-02-20T06:54:29.245Z,15.53
2023-02-20T06:56:58.751Z,14.87
2023-02-20T06:59:27.604Z,13.70
2023-02-20T07:01:56.342Z,14.47
2023-02-20T07:04:27.938Z,15.97
2023-02-20T07:06:56.586Z,14.90
2023-02-20T07:09:25.338Z,14.10
2023-02-20T07:11:55.953Z,13.87
2023-02-20T07:14:24.596Z,13.77
2023-02-20T07:16:53.064Z,14.10
2023-02-20T07:19:21.712Z,16.00
2023-02-20T07:21:50.905Z,13.10
2023-02-20T07:24:19.566Z,12.63
2023-02-20T07:26:48.824Z,12.33
2023-02-20T07:29:18.662Z,14.53
2023-02-20T07:31:47.736Z,14.07
2023-02-20T07:34:16.321Z,14.57
2023-02-20T07:36:44.865Z,13.70
2023-02-20T07:39:15.115Z,14.27
2023-02-20T07:41:43.790Z,14.37
2023-02-20T07:44:33.487Z,14.57
2023-02-20T07:47:01.899Z,12.53
2023-02-20T07:49:30.481Z,11.17
2023-02-20T07:51:58.886Z,13.53
2023-02-20T07:54:28.194Z,13.10
2023-02-20T07:56:57.115Z,13.37
2023-02-20T07:59:25.570Z,11.90
2023-02-20T08:01:56.005Z,11.70
2023-02-20T08:04:24.485Z,13.40
2023-02-20T08:06:53.015Z,11.20
2023-02-20T08:09:21.470Z,13.37
2023-02-20T08:11:50.158Z,11.23
2023-02-20T08:14:18.648Z,11.70
2023-02-20T08:16:47.386Z,11.30
2023-02-20T08:19:17.995Z,11.23
2023-02-20T08:21:46.383Z,13.93
2023-02-20T08:24:14.865Z,13.30
2023-02-20T08:26:47.237Z,13.03
2023-02-20T08:29:17.489Z,12.90
2023-02-20T08:31:46.570Z,12.13
2023-02-20T08:34:16.553Z,11.33
2023-02-20T08:36:45.157Z,10.83
2023-02-20T08:39:13.617Z,12.27
2023-02-20T08:41:45.996Z,10.67
2023-02-20T08:44:15.705Z,11.13
2023-02-20T08:46:48.900Z,12.00
2023-02-20T08:49:23.287Z,13.17
2023-02-20T08:51:58.468Z,12.20
2023-02-20T08:54:27.235Z,12.00
2023-02-20T08:56:55.632Z,12.87
2023-02-20T08:59:24.222Z,13.97
2023-02-20T09:01:52.692Z,10.87
2023-02-20T09:04:24.208Z,13.50
2023-02-20T09:06:52.653Z,12.83
2023-02-20T09:09:21.117Z,12.70
2023-02-20T09:11:49.879Z,12.83
2023-02-20T09:14:18.839Z,13.03
2023-02-20T09:16:47.494Z,13.73
2023-02-20T09:19:17.813Z,14.60
2023-02-20T09:21:49.779Z,15.07
2023-02-20T09:24:18.840Z,12.77
2023-02-20T09:26:47.823Z,15.80
2023-02-20T09:29:16.629Z,12.17
2023-02-20T09:31:45.579Z,12.27
2023-02-20T09:34:14.189Z,12.47
2023-02-20T09:36:43.053Z,10.30
2023-02-20T09:39:12.812Z,9.37
2023-02-20T09:42:01.731Z,9.03
2023-02-20T09:44:40.982Z,10.57
2023-02-20T09:47:28.885Z,10.80
2023-02-20T09:50:03.127Z,10.53
2023-02-20T09:52:35.828Z,9.87
2023-02-20T09:55:13.205Z,10.77
2023-02-20T09:57:45.127Z,9.53
2023-02-20T10:00:23.031Z,11.03
2023-02-20T10:03:01.436Z,11.10
2023-02-20T10:05:32.452Z,10.57
2023-02-20T10:08:00.860Z,9.83
2023-02-20T10:10:39.047Z,9.57
2023-02-20T10:13:29.176Z,9.07
2023-02-20T10:16:08.683Z,10.60
2023-02-20T10:18:48.578Z,10.53
2023-02-20T10:21:29.961Z,8.60
2023-02-20T10:24:07.661Z,5.47
2023-02-20T10:26:48.790Z,6.03
2023-02-20T10:29:22.817Z,5.17
2023-02-20T10:31:57.088Z,5.30
2023-02-20T10:34:31.844Z,4.70
2023-02-20T10:37:09.247Z,4.73
2023-02-20T10:39:40.500Z,4.67
2023-02-20T10:42:16.823Z,5.20
2023-02-20T10:44:53.213Z,4.73
2023-02-20T10:47:29.769Z,4.47
2023-02-20T10:50:04.262Z,3.83
2023-02-20T10:52:38.680Z,4.40
2023-02-20T10:55:13.973Z,4.67
2023-02-20T10:57:52.284Z,3.67
2023-02-20T11:00:26.348Z,4.17
2023-02-20T11:03:05.742Z,4.30
2023-02-20T11:05:42.275Z,5.10
2023-02-20T11:08:10.776Z,5.33
2023-02-20T11:10:40.269Z,4.43
2023-02-20T11:13:18.626Z,4.20
2023-02-20T11:15:49.807Z,3.93
2023-02-20T11:18:28.237Z,4.67
2023-02-20T11:20:57.761Z,4.13
2023-02-20T11:23:41.320Z,3.37
2023-02-20T11:26:31.132Z,3.47
2023-02-20T11:29:12.574Z,3.27
2023-02-20T11:31:42.235Z,3.47
2023-02-20T11:34:19.780Z,3.70
2023-02-20T11:36:52.776Z,4.00
2023-02-20T11:39:27.983Z,3.63
2023-02-20T11:42:17.216Z,4.20
2023-02-20T11:44:48.629Z,4.57
2023-02-20T11:47:28.588Z,4.43
2023-02-20T11:50:19.920Z,5.10
2023-02-20T11:53:05.215Z,5.13
2023-02-20T11:55:34.277Z,5.20
2023-02-20T11:58:04.179Z,3.83
2023-02-20T12:00:47.015Z,3.70
2023-02-20T12:03:24.590Z,3.80
2023-02-20T12:05:53.872Z,4.10
2023-02-20T12:08:44.473Z,3.30
2023-02-20T12:11:16.839Z,3.90
2023-02-20T12:13:48.154Z,3.33
2023-02-20T12:16:44.263Z,4.10
2023-02-20T12:19:19.058Z,4.27
2023-02-20T12:22:05.807Z,5.53
2023-02-20T12:24:54.287Z,6.10
2023-02-20T12:27:48.724Z,6.67
2023-02-20T12:30:35.090Z,8.70
2023-02-20T12:33:29.948Z,11.30
2023-02-20T12:36:06.684Z,12.87
2023-02-20T12:38:49.598Z,11.63
2023-02-20T12:41:57.380Z,13.00
2023-02-20T12:44:50.605Z,11.57
2023-02-20T12:47:30.697Z,12.53
2023-02-20T12:50:47.374Z,12.87
2023-02-20T12:53:50.836Z,10.17
2023-02-20T12:56:35.700Z,10.80
2023-02-20T12:59:16.433Z,12.27
2023-02-20T13:01:45.746Z,11.37
2023-02-20T13:04:26.945Z,9.90
2023-02-20T13:07:07.720Z,11.37
2023-02-20T13:09:42.065Z,9.90
2023-02-20T13:12:15.207Z,10.10
2023-02-20T13:15:00.475Z,9.50
2023-02-20T13:17:41.789Z,9.13
2023-02-20T13:20:19.986Z,7.47
2023-02-20T13:23:04.537Z,8.83
2023-02-20T13:25:42.003Z,7.10
2023-02-20T13:28:43.086Z,7.10
2023-02-20T13:31:17.094Z,4.93
2023-02-20T13:33:48.433Z,4.80
2023-02-20T13:36:42.259Z,5.10
2023-02-20T13:39:39.937Z,6.00
2023-02-20T13:42:34.697Z,5.27
2023-02-20T13:45:03.710Z,4.97
2023-02-20T13:47:41.082Z,4.80
2023-02-20T13:50:34.341Z,5.57
2023-02-20T13:53:07.244Z,7.70
2023-02-20T13:55:37.758Z,10.17
2023-02-20T13:58:14.090Z,17.27
2023-02-20T14:00:55.149Z,19.53
2023-02-20T14:03:26.992Z,15.20
2023-02-20T14:06:11.936Z,16.30
2023-02-20T14:08:43.497Z,18.23
2023-02-20T14:11:16.673Z,17.70
2023-02-20T14:13:48.510Z,17.00
2023-02-20T14:16:31.717Z,16.60
2023-02-20T14:19:04.949Z,16.87
2023-02-20T14:21:36.270Z,16.53
2023-02-20T14:24:19.770Z,17.13
2023-02-20T14:26:54.464Z,13.53
2023-02-20T14:29:27.636Z,14.67
2023-02-20T14:31:58.629Z,13.20
2023-02-20T14:34:44.841Z,16.77
2023-02-20T14:37:20.452Z,14.87
2023-02-20T14:39:57.089Z,14.50
2023-02-20T14:42:32.028Z,13.43
2023-02-20T14:45:04.757Z,13.60
2023-02-20T14:47:36.502Z,14.17
2023-02-20T14:50:19.507Z,11.97
2023-02-20T14:52:48.705Z,13.03
2023-02-20T14:55:19.842Z,13.47
2023-02-20T14:57:51.698Z,12.37
2023-02-20T15:00:37.843Z,14.07
2023-02-20T15:03:28.062Z,12.80
2023-02-20T15:06:03.957Z,11.60
2023-02-20T15:08:36.304Z,11.70
2023-02-20T15:11:10.504Z,11.40
2023-02-20T15:13:45.076Z,11.20
2023-02-20T15:16:19.324Z,12.50
2023-02-20T15:18:50.597Z,11.73
2023-02-20T15:21:39.845Z,12.57
2023-02-20T15:24:37.515Z,13.30
2023-02-20T15:27:16.784Z,14.03
2023-02-20T15:29:48.094Z,15.57
2023-02-20T15:32:22.172Z,16.17
2023-02-20T15:34:55.110Z,16.27
2023-02-20T15:37:33.930Z,15.13
2023-02-20T15:40:23.454Z,13.80
2023-02-20T15:42:56.917Z,11.83
2023-02-20T15:45:30.361Z,11.90
2023-02-20T15:48:00.285Z,10.10
2023-02-20T15:50:28.882Z,11.20
2023-02-20T15:52:58.708Z,10.27
2023-02-20T15:55:28.656Z,10.47
2023-02-20T15:57:59.539Z,15.50
2023-02-20T16:00:32.853Z,9.07
2023-02-20T16:03:02.715Z,8.60
2023-02-20T16:05:31.294Z,6.83
2023-02-20T16:08:00.849Z,7.70
2023-02-20T16:10:29.411Z,7.30
2023-02-20T16:13:01.574Z,7.50
2023-02-20T16:15:32.216Z,8.87
2023-02-20T16:18:01.033Z,8.60
2023-02-20T16:20:31.897Z,11.33
2023-02-20T16:23:01.055Z,10.13
2023-02-20T16:25:29.462Z,8.33
2023-02-20T16:27:58.842Z,8.10
2023-02-20T16:30:34.318Z,8.50
2023-02-20T16:33:04.898Z,9.53
2023-02-20T16:35:33.461Z,8.37
2023-02-20T16:38:02.391Z,9.77
2023-02-20T16:40:31.166Z,8.23
2023-02-20T16:42:59.723Z,9.10
2023-02-20T16:45:28.599Z,7.50
2023-02-20T16:48:00.029Z,8.07
2023-02-20T16:50:34.664Z,7.40
2023-02-20T16:53:06.357Z,6.93
2023-02-20T16:55:37.890Z,7.50
2023-02-20T16:58:06.641Z,7.27
2023-02-20T17:00:42.392Z,8.57
2023-02-20T17:03:17.536Z,7.50
2023-02-20T17:05:45.990Z,8.47
2023-02-20T17:08:14.970Z,7.67
2023-02-20T17:10:43.682Z,7.70
2023-02-20T17:13:12.244Z,6.57
2023-02-20T17:15:40.635Z,6.83
2023-02-20T17:18:09.157Z,6.37
2023-02-20T17:20:39.026Z,6.30
2023-02-20T17:23:07.838Z,6.97
2023-02-20T17:25:36.932Z,6.17
2023-02-20T17:28:07.254Z,6.60
2023-02-20T17:30:36.269Z,7.23
2023-02-20T17:33:04.742Z,7.43
2023-02-20T17:35:33.265Z,7.13
2023-02-20T17:38:04.653Z,6.37
2023-02-20T17:40:33.226Z,5.97
2023-02-20T17:43:01.813Z,8.27
2023-02-20T17:45:30.228Z,10.27
2023-02-20T17:47:58.704Z,16.30
2023-02-20T17:50:27.537Z,12.67
2023-02-20T17:52:56.409Z,8.93
2023-02-20T17:55:28.811Z,8.20
2023-02-20T17:57:57.361Z,7.70
2023-02-20T18:00:26.344Z,7.83
2023-02-20T18:02:54.693Z,8.43
2023-02-20T18:05:23.012Z,8.90
2023-02-20T18:07:51.575Z,7.60
2023-02-20T18:10:20.581Z,7.10
2023-02-20T18:13:02.602Z,7.93
2023-02-20T18:15:32.310Z,7.73
2023-02-20T18:18:01.846Z,8.70
2023-02-20T18:20:30.940Z,10.30
2023-02-20T18:23:00.245Z,7.83
2023-02-20T18:25:40.138Z,8.07
2023-02-20T18:28:11.535Z,8.50
2023-02-20T18:30:40.832Z,8.30
2023-02-20T18:33:09.766Z,8.60
2023-02-20T18:35:38.497Z,9.10
2023-02-20T18:38:07.539Z,8.23
2023-02-20T18:40:36.095Z,9.57
2023-02-20T18:43:04.477Z,10.40
2023-02-20T18:45:35.076Z,10.57
2023-02-20T18:48:03.536Z,10.60
2023-02-20T18:50:32.281Z,10.63
2023-02-20T18:53:01.500Z,10.37
2023-02-20T18:55:29.970Z,14.80
2023-02-20T18:57:59.806Z,10.10
2023-02-20T19:00:31.370Z,11.10
2023-02-20T19:03:03.539Z,10.80
2023-02-20T19:05:32.256Z,9.63
2023-02-20T19:08:00.716Z,10.43
2023-02-20T19:10:29.470Z,13.00
2023-02-20T19:12:58.818Z,15.73
2023-02-20T19:15:28.003Z,14.50
2023-02-20T19:17:56.442Z,13.57
2023-02-20T19:20:29.601Z,11.90
2023-02-20T19:23:00.584Z,9.83
2023-02-20T19:25:29.459Z,11.47
2023-02-20T19:27:58.205Z,11.67
2023-02-20T19:30:26.719Z,10.60
2023-02-20T19:32:55.435Z,10.90
2023-02-20T19:35:25.510Z,10.80
2023-02-20T19:37:53.882Z,11.07
2023-02-20T19:40:22.345Z,11.20
2023-02-20T19:42:50.830Z,12.30
2023-02-20T19:45:19.334Z,12.03
2023-02-20T19:47:48.037Z,11.90
2023-02-20T19:50:17.087Z,10.80
2023-02-20T19:52:47.037Z,11.93
2023-02-20T19:55:20.168Z,11.87
2023-02-20T19:57:48.967Z,11.20
2023-02-20T20:00:20.224Z,13.10
2023-02-20T20:02:52.113Z,11.47
2023-02-20T20:05:22.136Z,11.10
2023-02-20T20:07:52.500Z,12.37
2023-02-20T20:10:22.892Z,12.23
2023-02-20T20:12:51.693Z,10.93
2023-02-20T20:15:22.989Z,11.77
2023-02-20T20:17:54.493Z,10.97
2023-02-20T20:20:24.881Z,12.23
2023-02-20T20:22:57.331Z,12.17
2023-02-20T20:25:26.356Z,10.87
2023-02-20T20:27:57.950Z,11.67
2023-02-20T20:30:29.497Z,11.57
2023-02-20T20:32:58.428Z,11.33
2023-02-20T20:35:30.184Z,11.33
2023-02-20T20:38:01.580Z,12.20
2023-02-20T20:40:31.224Z,11.20
2023-02-20T20:43:00.149Z,11.50
2023-02-20T20:45:28.885Z,11.37
2023-02-20T20:47:57.405Z,12.27
2023-02-20T20:50:29.078Z,12.87
2023-02-20T20:53:01.780Z,13.13
2023-02-20T20:55:31.488Z,11.80
2023-02-20T20:58:00.069Z,12.20
2023-02-20T21:00:32.578Z,13.90
2023-02-20T21:03:01.154Z,14.17
2023-02-20T21:05:32.913Z,14.80
2023-02-20T21:08:04.070Z,12.13
2023-02-20T21:10:32.658Z,11.80
2023-02-20T21:13:01.502Z,11.47
2023-02-20T21:15:30.344Z,13.57
2023-02-20T21:17:59.026Z,12.40
2023-02-20T21:20:29.441Z,11.60
2023-02-20T21:22:59.980Z,12.30
2023-02-20T21:25:29.843Z,17.37
2023-02-20T21:27:59.208Z,13.60
2023-02-20T21:30:29.026Z,13.13
2023-02-20T21:32:58.691Z,12.57
2023-02-20T21:35:27.289Z,11.73
2023-02-20T21:37:56.660Z,12.80
2023-02-20T21:40:25.239Z,12.30
2023-02-20T21:43:17.920Z,13.57
2023-02-20T21:45:48.159Z,12.10
2023-02-20T21:48:17.003Z,12.23
2023-02-20T21:50:45.731Z,12.73
2023-02-20T21:53:16.789Z,13.13
2023-02-20T21:55:46.409Z,12.57
2023-02-20T21:58:21.235Z,14.97
2023-02-20T22:00:48.911Z,13.30
2023-02-20T22:03:16.284Z,14.70
2023-02-20T22:05:43.534Z,14.90
2023-02-20T22:08:29.573Z,13.40
2023-02-20T22:11:15.731Z,15.07
2023-02-20T22:14:02.716Z,14.03
2023-02-20T22:16:48.665Z,13.50
2023-02-20T22:19:34.754Z,12.47
2023-02-20T22:22:21.012Z,14.00
2023-02-20T22:25:07.028Z,13.00
2023-02-20T22:27:53.116Z,14.60
2023-02-20T22:30:40.583Z,14.30
2023-02-20T22:33:26.947Z,14.70
2023-02-20T22:36:12.851Z,15.23
2023-02-20T22:38:59.042Z,14.90
2023-02-20T22:41:45.077Z,14.63
2023-02-20T22:44:31.057Z,15.30
2023-02-20T22:47:18.284Z,14.30
2023-02-20T22:50:04.218Z,14.57
2023-02-20T22:52:50.300Z,15.30
2023-02-20T22:55:36.647Z,15.00
2023-02-20T22:58:23.215Z,14.63
2023-02-20T23:01:09.748Z,16.77
2023-02-20T23:03:59.313Z,14.90
2023-02-20T23:06:46.029Z,16.80
2023-02-20T23:09:32.456Z,17.07
2023-02-20T23:12:18.480Z,16.60
2023-02-20T23:15:04.508Z,15.87
2023-02-20T23:17:50.315Z,15.97
2023-02-20T23:20:41.406Z,19.03
2023-02-20T23:23:28.150Z,15.37
2023-02-20T23:26:13.878Z,14.23
2023-02-20T23:29:00.364Z,17.50
2023-02-20T23:31:51.210Z,17.13
2023-02-20T23:34:37.615Z,16.67
2023-02-20T23:37:24.740Z,17.37
2023-02-20T23:40:10.647Z,17.60
2023-02-20T23:42:56.978Z,16.10
2023-02-20T23:45:43.539Z,17.40
2023-02-20T23:48:30.346Z,17.10
2023-02-20T23:51:16.692Z,17.13
2023-02-20T23:54:03.808Z,18.00
2023-02-20T23:56:49.838Z,18.17
2023-02-20T23:59:35.661Z,18.53
